Time;durP1;ratioP1;P1;durP2;ratioP2;P2;SDS_P1;SDS_P2;PMS_P1;PMS_P2;Temp;Humidity;BMP_temperature;BMP_pressure;BME280_temperature;BME280_humidity;BME280_pressure;Samples;Min_cycle;Max_cycle;Signal;HPM_P1;HPM_P2
2022/11/15 00:00:35;;;;;;;39.87;19.30;;;;;;;4.75;100.00;100304.81;4163663;28;20374;-69
2022/11/15 00:03:02;;;;;;;39.87;18.73;;;;;;;4.72;100.00;100295.31;4159288;28;20263;-68
2022/11/15 00:05:28;;;;;;;43.50;20.67;;;;;;;4.76;100.00;100295.97;4154499;28;20330;-69
2022/11/15 00:07:56;;;;;;;38.63;19.97;;;;;;;4.66;100.00;100290.53;4151224;28;20249;-69
2022/11/15 00:10:23;;;;;;;39.47;20.47;;;;;;;4.68;100.00;100290.38;4142283;28;21869;-68
2022/11/15 00:12:49;;;;;;;44.63;20.47;;;;;;;4.77;100.00;100287.91;4146578;28;20248;-68
2022/11/15 00:15:16;;;;;;;42.30;20.80;;;;;;;4.75;100.00;100281.94;4146442;28;20399;-67
2022/11/15 00:17:42;;;;;;;49.40;22.23;;;;;;;4.69;100.00;100276.28;4139415;28;20250;-68
2022/11/15 00:20:09;;;;;;;50.20;23.80;;;;;;;4.61;100.00;100276.81;4148047;28;20303;-68
2022/11/15 00:22:35;;;;;;;47.73;22.47;;;;;;;4.59;100.00;100274.31;4150271;28;20238;-68
2022/11/15 00:25:03;;;;;;;47.23;23.70;;;;;;;4.56;100.00;100266.59;4145933;28;20246;-69
2022/11/15 00:27:29;;;;;;;51.90;24.60;;;;;;;4.50;100.00;100268.84;4141764;28;20632;-69
2022/11/15 00:29:56;;;;;;;56.90;25.70;;;;;;;4.48;100.00;100265.47;4143004;28;20251;-69
2022/11/15 00:32:22;;;;;;;56.83;26.20;;;;;;;4.57;100.00;100260.38;4152090;28;20240;-69
2022/11/15 00:34:49;;;;;;;60.07;26.43;;;;;;;4.59;100.00;100252.38;4147499;28;20262;-69
2022/11/15 00:37:15;;;;;;;61.27;28.57;;;;;;;4.58;100.00;100251.53;4140595;28;20251;-68
2022/11/15 00:39:42;;;;;;;66.43;28.13;;;;;;;4.69;100.00;100253.38;4141109;28;20347;-68
2022/11/15 00:42:08;;;;;;;66.03;29.37;;;;;;;4.71;100.00;100242.75;4146738;28;21506;-68
2022/11/15 00:44:35;;;;;;;64.93;29.70;;;;;;;4.67;100.00;100236.00;4145093;28;22355;-69
2022/11/15 00:47:01;;;;;;;61.67;27.80;;;;;;;4.69;100.00;100232.31;4144213;28;20600;-69
2022/11/15 00:49:28;;;;;;;67.77;29.00;;;;;;;4.62;100.00;100231.91;4142302;28;20705;-68
2022/11/15 00:51:54;;;;;;;65.93;29.20;;;;;;;4.57;100.00;100233.19;4147215;28;20805;-67
2022/11/15 00:54:21;;;;;;;73.27;30.70;;;;;;;4.62;100.00;100226.63;4142123;28;20369;-68
2022/11/15 00:56:47;;;;;;;71.90;28.57;;;;;;;4.57;100.00;100223.50;4148000;28;20438;-70
2022/11/15 00:59:14;;;;;;;81.23;31.03;;;;;;;4.41;100.00;100218.50;4144152;28;20248;-70
2022/11/15 01:01:40;;;;;;;74.97;30.57;;;;;;;4.56;100.00;100213.91;4148634;28;22627;-68
2022/11/15 01:04:07;;;;;;;78.00;30.73;;;;;;;4.52;100.00;100212.47;4151823;28;20247;-68
2022/11/15 01:06:33;;;;;;;68.23;30.30;;;;;;;4.56;100.00;100206.00;4160483;28;20307;-67
2022/11/15 01:08:59;;;;;;;75.73;31.43;;;;;;;4.64;100.00;100203.66;4158146;28;20302;-68
2022/11/15 01:11:26;;;;;;;74.07;30.90;;;;;;;4.65;100.00;100199.22;4173350;28;20273;-67
2022/11/15 01:13:52;;;;;;;71.47;30.13;;;;;;;4.57;100.00;100191.88;4153881;28;20671;-70
2022/11/15 01:16:19;;;;;;;70.97;29.77;;;;;;;4.58;100.00;100188.28;4173983;28;21803;-68
2022/11/15 01:18:46;;;;;;;68.37;27.73;;;;;;;4.58;100.00;100183.00;4166666;28;20243;-70
2022/11/15 01:21:15;;;;;;;68.87;29.03;;;;;;;4.52;100.00;100183.47;4170242;28;20232;-68
2022/11/15 01:23:42;;;;;;;68.33;29.20;;;;;;;4.49;100.00;100183.69;4162413;28;20464;-69
2022/11/15 01:26:11;;;;;;;73.40;29.53;;;;;;;4.49;100.00;100194.22;4161927;28;23770;-67
2022/11/15 01:28:39;;;;;;;69.57;29.93;;;;;;;4.48;100.00;100197.81;4156698;28;20557;-68
2022/11/15 01:31:09;;;;;;;68.73;28.40;;;;;;;4.51;100.00;100173.88;4149331;28;20234;-69
2022/11/15 01:33:36;;;;;;;69.40;27.83;;;;;;;4.51;100.00;100181.78;4164950;28;20241;-67
2022/11/15 01:36:07;;;;;;;65.03;28.00;;;;;;;4.52;100.00;100174.69;4157445;28;24180;-68
2022/11/15 01:38:34;;;;;;;68.50;27.23;;;;;;;4.53;100.00;100179.88;4170822;28;20408;-67
2022/11/15 01:41:00;;;;;;;65.80;27.33;;;;;;;4.53;100.00;100169.31;4168372;28;21282;-67
2022/11/15 01:43:30;;;;;;;70.67;27.63;;;;;;;4.54;100.00;100173.66;4147504;28;22237;-68
2022/11/15 01:46:33;;;;;;;65.73;27.63;;;;;;;4.64;100.00;100181.72;4163337;28;20234;-70
2022/11/15 01:49:03;;;;;;;66.13;27.60;;;;;;;4.46;100.00;100168.09;4155887;28;21463;-70
2022/11/15 01:51:31;;;;;;;64.37;28.00;;;;;;;4.55;100.00;100164.78;4152748;28;20239;-70
2022/11/15 01:54:01;;;;;;;66.20;27.47;;;;;;;4.52;100.00;100161.53;4156882;28;20238;-67
2022/11/15 01:56:30;;;;;;;63.63;27.17;;;;;;;4.50;100.00;100152.94;4156478;28;21991;-70
2022/11/15 01:58:58;;;;;;;70.53;29.57;;;;;;;4.39;100.00;100151.06;4160799;28;21652;-67
2022/11/15 02:01:26;;;;;;;73.80;30.40;;;;;;;4.48;100.00;100139.84;4148984;28;20279;-69
2022/11/15 02:03:59;;;;;;;70.57;29.87;;;;;;;4.44;100.00;100138.38;4194481;28;20258;-71
2022/11/15 02:06:26;;;;;;;76.60;29.93;;;;;;;4.49;100.00;100138.88;4161820;28;20653;-71
2022/11/15 02:08:52;;;;;;;68.50;28.47;;;;;;;4.50;100.00;100142.38;4162105;28;21080;-70
2022/11/15 02:11:20;;;;;;;75.03;29.40;;;;;;;4.55;100.00;100138.44;4142777;28;20492;-70
2022/11/15 02:13:46;;;;;;;71.60;29.63;;;;;;;4.62;100.00;100137.03;4171102;28;21298;-69
2022/11/15 02:16:19;;;;;;;70.27;30.23;;;;;;;4.61;100.00;100137.13;4160641;28;20242;-69
2022/11/15 02:18:52;;;;;;;66.30;29.70;;;;;;;4.70;100.00;100130.34;4142062;28;21325;-69
2022/11/15 02:21:57;;;;;;;78.13;31.13;;;;;;;4.72;100.00;100129.28;4152225;28;20755;-68
2022/11/15 02:24:52;;;;;;;68.33;29.63;;;;;;;4.84;100.00;100130.13;4125109;28;20243;-68
2022/11/15 02:27:56;;;;;;;67.07;29.17;;;;;;;4.73;100.00;100123.06;4156775;28;20342;-70
2022/11/15 02:30:33;;;;;;;65.43;28.27;;;;;;;4.74;100.00;100123.91;4164718;28;20233;-67
2022/11/15 02:33:34;;;;;;;65.60;29.03;;;;;;;4.84;100.00;100115.16;4159211;28;20232;-71
2022/11/15 02:36:05;;;;;;;73.73;30.80;;;;;;;4.80;100.00;100118.13;4162015;28;20348;-72
2022/11/15 02:38:57;;;;;;;74.73;31.77;;;;;;;4.71;100.00;100108.31;4153550;28;20277;-72
2022/11/15 02:41:30;;;;;;;78.77;31.80;;;;;;;4.71;100.00;100110.97;4142305;28;25756;-70
2022/11/15 02:44:02;;;;;;;74.13;32.00;;;;;;;4.72;100.00;100104.72;4150952;28;21458;-68
2022/11/15 02:49:21;;;;;;;77.87;31.97;;;;;;;4.63;100.00;100104.44;4152373;28;20246;-68
2022/11/15 02:51:49;;;;;;;79.73;31.80;;;;;;;4.63;100.00;100112.34;4154600;28;20233;-70
2022/11/15 02:54:28;;;;;;;72.87;31.40;;;;;;;4.59;100.00;100103.00;4152124;28;21844;-72
2022/11/15 02:56:59;;;;;;;78.50;33.80;;;;;;;4.54;100.00;100093.75;4152894;28;20993;-71
2022/11/15 02:59:49;;;;;;;76.50;32.43;;;;;;;4.46;100.00;100089.06;4146299;28;20692;-70
2022/11/15 03:02:42;;;;;;;75.60;32.10;;;;;;;4.40;100.00;100076.34;4157979;28;22111;-70
2022/11/15 03:05:17;;;;;;;75.80;31.93;;;;;;;4.26;100.00;100082.66;4156112;28;20231;-68
2022/11/15 03:07:48;;;;;;;79.57;32.20;;;;;;;4.36;100.00;100072.28;4146798;28;21272;-71
2022/11/15 03:10:23;;;;;;;80.00;32.90;;;;;;;4.40;100.00;100077.19;4165754;28;20929;-69
2022/11/15 03:12:56;;;;;;;82.00;34.13;;;;;;;4.41;100.00;100075.41;4148689;28;24124;-69
2022/11/15 03:15:32;;;;;;;80.37;33.30;;;;;;;4.42;100.00;100074.44;4153368;28;20268;-70
2022/11/15 03:18:01;;;;;;;84.20;34.03;;;;;;;4.37;100.00;100074.78;4155125;28;21619;-72
2022/11/15 03:20:28;;;;;;;77.93;30.77;;;;;;;4.42;100.00;100066.53;4149529;28;21237;-71
2022/11/15 03:23:00;;;;;;;83.07;32.57;;;;;;;4.38;100.00;100065.94;4155150;28;22670;-71
2022/11/15 03:25:28;;;;;;;75.97;31.77;;;;;;;4.29;100.00;100065.78;4157516;28;23122;-69
2022/11/15 03:27:57;;;;;;;80.67;32.30;;;;;;;4.45;100.00;100055.78;4153556;28;20311;-68
2022/11/15 03:30:24;;;;;;;80.10;31.03;;;;;;;4.38;100.00;100051.94;4141988;28;20357;-70
2022/11/15 03:32:53;;;;;;;81.30;32.23;;;;;;;4.42;100.00;100051.59;4162881;28;22055;-69
2022/11/15 03:35:22;;;;;;;77.50;31.17;;;;;;;4.42;100.00;100051.59;4162871;28;20316;-67
2022/11/15 03:38:08;;;;;;;72.40;29.73;;;;;;;4.42;100.00;100050.72;4163968;28;20358;-70
2022/11/15 03:40:58;;;;;;;77.83;30.50;;;;;;;4.42;100.00;100038.41;4167071;28;22013;-69
2022/11/15 03:43:40;;;;;;;73.70;30.50;;;;;;;4.44;100.00;100038.28;4162793;28;22646;-68
2022/11/15 03:46:15;;;;;;;84.43;31.53;;;;;;;4.37;100.00;100029.16;4170673;28;20953;-69
2022/11/15 03:48:47;;;;;;;74.63;30.93;;;;;;;4.37;100.00;100027.34;4162479;28;20370;-68
2022/11/15 03:51:13;;;;;;;75.17;30.50;;;;;;;4.34;100.00;100032.03;4163960;28;20242;-71
2022/11/15 03:53:40;;;;;;;78.27;32.47;;;;;;;4.49;100.00;100030.03;4173937;28;20234;-68
2022/11/15 03:56:07;;;;;;;78.53;31.17;;;;;;;4.45;100.00;100024.16;4152971;28;20292;-70
2022/11/15 03:58:33;;;;;;;76.77;30.23;;;;;;;4.36;100.00;100023.06;4157287;28;21786;-70
2022/11/15 04:01:00;;;;;;;79.77;31.67;;;;;;;4.35;100.00;100017.88;4160512;28;20231;-69
2022/11/15 04:03:27;;;;;;;88.40;32.73;;;;;;;4.30;100.00;100014.78;4139270;28;20258;-69
2022/11/15 04:05:54;;;;;;;84.83;32.03;;;;;;;4.40;100.00;100019.25;4159714;28;20348;-70
2022/11/15 04:08:20;;;;;;;86.87;32.77;;;;;;;4.37;100.00;100008.09;4159899;28;20244;-67
2022/11/15 04:10:49;;;;;;;79.20;30.10;;;;;;;4.43;100.00;100015.53;4152964;28;20251;-70
2022/11/15 04:13:15;;;;;;;84.03;32.50;;;;;;;4.41;100.00;100010.38;4162585;28;22628;-69
2022/11/15 04:15:42;;;;;;;86.47;33.20;;;;;;;4.46;100.00;100007.38;4152700;28;21781;-69
2022/11/15 04:18:08;;;;;;;83.70;32.17;;;;;;;4.44;100.00;100007.50;4156078;28;22691;-69
2022/11/15 04:26:10;;;;;;;79.93;31.00;;;;;;;4.59;100.00;99997.59;4166699;28;21261;-69
2022/11/15 04:29:33;;;;;;;89.33;32.00;;;;;;;4.62;100.00;100002.63;4156649;28;22450;-69
2022/11/15 04:31:27;;;;;;;79.90;29.93;;;;;;;4.61;100.00;99997.47;4179901;28;23071;-69
2022/11/15 04:33:54;;;;;;;76.67;30.20;;;;;;;4.44;100.00;99994.31;4161413;28;22140;-68
2022/11/15 04:39:06;;;;;;;79.43;30.03;;;;;;;4.53;100.00;99991.97;4192330;28;20245;-69
2022/11/15 04:41:33;;;;;;;77.87;30.97;;;;;;;4.49;100.00;99993.97;4151077;28;20302;-69
2022/11/15 04:43:59;;;;;;;94.60;32.97;;;;;;;4.39;100.00;99998.28;4155265;28;20691;-68
2022/11/15 04:46:26;;;;;;;83.07;29.67;;;;;;;4.42;100.00;99996.25;4159085;28;21672;-68
2022/11/15 04:48:54;;;;;;;86.47;30.37;;;;;;;4.42;100.00;99992.75;4164862;28;20231;-69
2022/11/15 04:51:25;;;;;;;84.57;31.57;;;;;;;4.48;100.00;99994.09;4167632;28;22288;-69
2022/11/15 04:53:51;;;;;;;84.40;29.67;;;;;;;4.49;100.00;99987.88;4158165;28;20226;-70
2022/11/15 04:56:18;;;;;;;83.13;30.50;;;;;;;4.49;100.00;99987.88;4163586;28;20997;-70
2022/11/15 04:58:44;;;;;;;82.63;31.70;;;;;;;4.54;100.00;99986.59;4153021;28;20232;-68
2022/11/15 05:01:14;;;;;;;87.87;30.23;;;;;;;4.49;100.00;99982.59;4164544;28;21592;-69
2022/11/15 05:06:27;;;;;;;76.90;28.30;;;;;;;4.50;100.00;99974.59;4172635;28;20242;-70
2022/11/15 05:08:54;;;;;;;78.33;29.00;;;;;;;4.51;100.00;99983.31;4150110;28;21305;-69
2022/11/15 05:11:21;;;;;;;84.70;29.60;;;;;;;4.48;100.00;99981.78;4160104;28;20250;-70
2022/11/15 05:13:48;;;;;;;81.47;30.47;;;;;;;4.44;100.00;99973.25;4162363;28;21474;-70
2022/11/15 05:16:14;;;;;;;86.40;29.63;;;;;;;4.38;100.00;99971.09;4159933;28;20269;-70
2022/11/15 05:18:41;;;;;;;79.27;27.97;;;;;;;4.44;100.00;99975.03;4161158;28;24290;-71
2022/11/15 05:21:10;;;;;;;81.43;30.53;;;;;;;4.42;100.00;99974.31;4159482;28;23627;-69
2022/11/15 05:23:37;;;;;;;76.50;28.57;;;;;;;4.48;100.00;99978.31;4158229;28;20242;-69
2022/11/15 05:26:05;;;;;;;75.97;28.83;;;;;;;4.53;100.00;99979.63;4161144;28;20698;-69
2022/11/15 05:28:36;;;;;;;87.03;30.20;;;;;;;4.55;100.00;99971.59;4167199;28;26612;-70
2022/11/15 05:31:14;;;;;;;83.90;28.87;;;;;;;4.50;100.00;99966.69;4164448;28;20429;-70
2022/11/15 05:33:41;;;;;;;90.13;29.70;;;;;;;4.39;100.00;99961.41;4163677;28;20236;-71
2022/11/15 05:36:17;;;;;;;90.27;29.37;;;;;;;4.35;100.00;99970.47;4178333;28;23671;-70
2022/11/15 05:38:45;;;;;;;90.57;29.53;;;;;;;4.29;100.00;99968.31;4153697;28;20243;-70
2022/11/15 05:41:13;;;;;;;85.23;29.67;;;;;;;4.30;100.00;99970.81;4162392;28;25433;-70
2022/11/15 05:43:40;;;;;;;88.43;29.57;;;;;;;4.28;100.00;99972.72;4161280;28;20247;-70
2022/11/15 05:46:07;;;;;;;82.87;28.77;;;;;;;4.39;100.00;99956.97;4159794;28;20351;-70
2022/11/15 05:48:34;;;;;;;82.80;28.30;;;;;;;4.38;100.00;99963.19;4158127;28;20524;-72
2022/11/15 05:51:03;;;;;;;78.90;27.63;;;;;;;4.31;100.00;99963.75;4152481;28;20239;-70
2022/11/15 05:53:29;;;;;;;81.17;28.70;;;;;;;4.30;100.00;99951.56;4147041;28;23698;-70
2022/11/15 05:55:56;;;;;;;80.57;27.17;;;;;;;4.38;100.00;99955.28;4162932;28;21142;-71
2022/11/15 05:58:23;;;;;;;78.10;25.97;;;;;;;4.38;100.00;99954.47;4165872;28;20452;-69
2022/11/15 06:00:50;;;;;;;77.90;27.53;;;;;;;4.23;100.00;99957.28;4157656;28;20246;-71
2022/11/15 06:03:16;;;;;;;92.10;30.70;;;;;;;4.12;100.00;99959.91;4156486;28;20227;-71
2022/11/15 06:05:42;;;;;;;74.17;26.10;;;;;;;4.24;100.00;99960.78;4156263;28;20235;-69
2022/11/15 06:08:09;;;;;;;78.67;26.30;;;;;;;4.26;100.00;99963.28;4157984;28;20905;-69
2022/11/15 06:10:36;;;;;;;75.80;26.50;;;;;;;4.22;100.00;99968.78;4158248;28;20239;-69
2022/11/15 06:13:04;;;;;;;87.90;27.10;;;;;;;4.26;100.00;99965.91;4155293;28;20239;-71
2022/11/15 06:15:32;;;;;;;87.73;26.53;;;;;;;4.17;100.00;99962.19;4159444;28;20715;-71
2022/11/15 06:17:58;;;;;;;77.67;26.67;;;;;;;4.20;100.00;99968.06;4166457;28;21260;-71
2022/11/15 06:20:26;;;;;;;89.40;27.97;;;;;;;4.15;100.00;99974.63;4172058;28;21060;-69
2022/11/15 06:23:01;;;;;;;93.10;26.67;;;;;;;4.08;100.00;99966.34;4156114;28;21678;-70
2022/11/15 06:25:28;;;;;;;96.37;27.30;;;;;;;4.09;100.00;99965.38;4157618;28;21359;-70
2022/11/15 06:27:56;;;;;;;86.60;26.20;;;;;;;4.12;100.00;99961.69;4193490;28;20242;-70
2022/11/15 06:30:24;;;;;;;93.57;27.50;;;;;;;4.09;100.00;99957.47;4155138;28;21518;-71
2022/11/15 06:32:51;;;;;;;90.77;26.93;;;;;;;4.15;100.00;99967.56;4155078;28;21339;-69
2022/11/15 06:35:17;;;;;;;87.47;28.10;;;;;;;4.14;100.00;99968.50;4156729;28;20237;-70
2022/11/15 06:37:44;;;;;;;87.27;28.37;;;;;;;4.17;100.00;99972.72;4154538;28;20245;-69
2022/11/15 06:40:11;;;;;;;75.00;26.47;;;;;;;4.14;100.00;99968.50;4167037;28;20237;-70
2022/11/15 06:42:38;;;;;;;78.37;25.93;;;;;;;4.18;100.00;99969.97;4155429;28;21145;-71
2022/11/15 06:45:04;;;;;;;73.27;25.53;;;;;;;4.13;100.00;99974.75;4158799;28;20229;-71
2022/11/15 06:47:31;;;;;;;66.17;25.33;;;;;;;4.07;100.00;99977.81;4175645;28;20235;-70
2022/11/15 06:49:58;;;;;;;63.63;22.03;;;;;;;4.03;100.00;99971.13;4174271;28;20958;-72
2022/11/15 06:52:24;;;;;;;68.47;23.13;;;;;;;4.01;100.00;99975.66;4166078;28;20312;-71
2022/11/15 06:54:51;;;;;;;63.73;23.70;;;;;;;3.95;100.00;99974.31;4181463;28;20236;-71
2022/11/15 06:57:17;;;;;;;64.63;22.43;;;;;;;3.99;100.00;99981.03;4186020;28;20399;-68
2022/11/15 06:59:44;;;;;;;58.13;21.03;;;;;;;4.03;100.00;99979.03;4196013;28;20239;-71
2022/11/15 07:02:13;;;;;;;61.80;21.83;;;;;;;3.99;100.00;99974.94;4190543;28;20238;-73
2022/11/15 07:04:39;;;;;;;56.23;22.03;;;;;;;3.98;100.00;99983.78;4179909;28;21722;-72
2022/11/15 07:07:06;;;;;;;53.70;21.43;;;;;;;4.06;100.00;99978.78;4193885;28;20295;-69
2022/11/15 07:09:33;;;;;;;58.60;22.73;;;;;;;4.00;100.00;99981.88;4197508;28;20238;-68
2022/11/15 07:11:59;;;;;;;62.07;22.13;;;;;;;3.95;100.00;99984.00;4197065;28;21321;-71
2022/11/15 07:14:32;;;;;;;63.03;23.53;;;;;;;3.97;100.00;99982.94;4195236;28;21268;-67
2022/11/15 07:16:59;;;;;;;66.67;22.63;;;;;;;3.97;100.00;99984.72;4188676;28;20238;-69
2022/11/15 07:19:25;;;;;;;68.47;24.07;;;;;;;4.03;100.00;99984.28;4176803;28;22161;-70
2022/11/15 07:21:52;;;;;;;68.87;23.40;;;;;;;4.03;100.00;99981.66;4204170;28;21165;-67
2022/11/15 07:24:19;;;;;;;64.27;23.40;;;;;;;4.02;100.00;99985.22;4179215;28;20918;-70
2022/11/15 07:26:45;;;;;;;63.97;23.33;;;;;;;4.08;100.00;99984.78;4168873;28;20240;-70
2022/11/15 07:29:12;;;;;;;57.67;22.47;;;;;;;4.12;100.00;99983.59;4166115;28;20241;-71
2022/11/15 07:31:38;;;;;;;67.53;22.70;;;;;;;4.13;100.00;99984.44;4181508;28;20268;-70
2022/11/15 07:34:05;;;;;;;65.00;23.63;;;;;;;4.19;100.00;99983.97;4167699;28;20879;-71
2022/11/15 07:36:31;;;;;;;64.43;22.73;;;;;;;4.19;100.00;99979.56;4169398;28;20235;-69
2022/11/15 07:38:58;;;;;;;60.23;21.27;;;;;;;4.30;100.00;99972.63;4176143;28;21417;-76
2022/11/15 07:41:25;;;;;;;61.43;23.27;;;;;;;4.17;100.00;99968.28;4161585;28;20232;-68
2022/11/15 07:43:52;;;;;;;70.00;23.63;;;;;;;4.22;100.00;99968.78;4163256;28;21685;-68
2022/11/15 07:46:19;;;;;;;70.13;24.63;;;;;;;4.12;100.00;99969.56;4201119;28;20242;-70
2022/11/15 07:48:45;;;;;;;61.80;22.60;;;;;;;4.13;100.00;99961.56;4166806;28;20385;-70
2022/11/15 07:51:14;;;;;;;63.00;23.43;;;;;;;4.14;100.00;99957.13;4180264;28;21504;-67
2022/11/15 07:53:42;;;;;;;65.30;23.70;;;;;;;4.08;100.00;99955.00;4178908;28;20435;-68
2022/11/15 07:56:09;;;;;;;56.97;21.90;;;;;;;4.07;100.00;99956.75;4192847;28;21227;-71
2022/11/15 07:58:36;;;;;;;64.73;21.43;;;;;;;4.16;100.00;99961.34;4181062;28;20326;-68
2022/11/15 08:01:06;;;;;;;57.87;21.80;;;;;;;4.14;100.00;99955.34;4177020;28;20408;-71
2022/11/15 08:03:33;;;;;;;56.13;21.73;;;;;;;4.12;100.00;99946.75;4176261;28;20230;-71
2022/11/15 08:06:00;;;;;;;52.30;21.43;;;;;;;4.22;100.00;99945.06;4174076;28;24373;-66
2022/11/15 08:08:27;;;;;;;55.80;21.90;;;;;;;4.19;100.00;99934.78;4172079;28;22663;-66
2022/11/15 08:10:54;;;;;;;57.10;21.83;;;;;;;4.22;100.00;99936.34;4151390;28;20257;-67
2022/11/15 08:13:21;;;;;;;56.83;20.97;;;;;;;4.31;100.00;99938.28;4152813;28;20315;-68
2022/11/15 08:15:47;;;;;;;56.60;22.10;;;;;;;4.40;100.00;99942.84;4165104;28;20706;-74
2022/11/15 08:18:21;;;;;;;57.83;21.23;;;;;;;4.38;100.00;99939.50;4210047;28;20244;-73
2022/11/15 08:20:48;;;;;;;65.70;23.80;;;;;;;4.51;100.00;99931.47;4161493;28;20246;-67
2022/11/15 08:23:14;;;;;;;56.90;21.93;;;;;;;4.51;100.00;99928.00;4174257;28;20218;-69
2022/11/15 08:25:41;;;;;;;57.20;22.33;;;;;;;4.49;100.00;99929.91;4168174;28;20272;-73
2022/11/15 08:28:09;;;;;;;58.27;22.80;;;;;;;4.52;100.00;99921.75;4168524;28;20242;-74
2022/11/15 08:30:41;;;;;;;62.73;22.90;;;;;;;4.57;100.00;99922.25;4174866;28;20268;-72
2022/11/15 08:33:13;;;;;;;58.80;20.97;;;;;;;4.54;100.00;99922.47;4173949;28;20430;-71
2022/11/15 08:35:40;;;;;;;56.23;21.83;;;;;;;4.67;100.00;99927.66;4185326;28;20243;-74
2022/11/15 08:38:07;;;;;;;53.40;21.00;;;;;;;4.64;100.00;99921.66;4174076;28;20409;-76
2022/11/15 08:40:34;;;;;;;47.93;20.90;;;;;;;4.64;100.00;99921.66;4183074;28;20342;-76
2022/11/15 08:43:02;;;;;;;57.60;22.00;;;;;;;4.60;100.00;99922.84;4178241;28;20242;-69
2022/11/15 08:45:30;;;;;;;55.87;21.80;;;;;;;4.62;100.00;99926.22;4174821;28;20257;-74
2022/11/15 08:47:56;;;;;;;50.67;21.87;;;;;;;4.69;100.00;99931.00;4175803;28;20299;-81
2022/11/15 08:50:23;;;;;;;57.10;21.43;;;;;;;4.60;100.00;99917.56;4175858;28;20422;-71
2022/11/15 08:52:50;;;;;;;60.53;23.10;;;;;;;4.61;100.00;99924.53;4166991;28;20238;-73
2022/11/15 08:55:16;;;;;;;62.60;22.57;;;;;;;4.61;100.00;99919.28;4176277;28;20233;-69
2022/11/15 08:57:43;;;;;;;57.07;22.53;;;;;;;4.67;100.00;99914.47;4193686;28;21493;-73
2022/11/15 09:00:11;;;;;;;63.13;23.57;;;;;;;4.75;100.00;99922.59;4164252;28;20335;-71
2022/11/15 09:02:39;;;;;;;58.23;22.63;;;;;;;4.72;100.00;99920.22;4164575;28;20789;-69
2022/11/15 09:05:06;;;;;;;55.10;21.43;;;;;;;4.82;100.00;99914.13;4160616;28;21595;-75
2022/11/15 09:07:32;;;;;;;55.07;21.83;;;;;;;4.82;100.00;99908.84;4168725;28;20251;-69
2022/11/15 09:09:59;;;;;;;60.17;22.47;;;;;;;4.86;100.00;99901.50;4154439;28;20234;-70
2022/11/15 09:12:25;;;;;;;56.83;21.53;;;;;;;4.96;100.00;99905.09;4164077;28;20390;-74
2022/11/15 09:14:52;;;;;;;61.67;25.07;;;;;;;4.74;100.00;99898.06;4177034;28;21239;-68
2022/11/15 09:17:19;;;;;;;55.60;23.37;;;;;;;4.56;100.00;99902.13;4159950;28;21617;-74
2022/11/15 09:19:50;;;;;;;58.43;22.40;;;;;;;4.76;100.00;99890.03;4158918;28;20291;-72
2022/11/15 09:22:17;;;;;;;54.80;22.70;;;;;;;4.74;100.00;99889.31;4167895;28;20298;-73
2022/11/15 09:24:44;;;;;;;58.10;22.50;;;;;;;4.73;100.00;99891.13;4167854;28;25141;-70
2022/11/15 09:27:10;;;;;;;61.77;22.47;;;;;;;4.82;100.00;99885.13;4188790;28;20370;-73
2022/11/15 09:29:37;;;;;;;59.97;23.57;;;;;;;4.88;100.00;99883.78;4168926;28;21452;-73
2022/11/15 09:32:04;;;;;;;60.50;23.57;;;;;;;4.91;100.00;99883.53;4173614;28;20760;-74
2022/11/15 09:34:30;;;;;;;60.93;23.17;;;;;;;4.95;100.00;99884.97;4164537;28;20758;-72
2022/11/15 09:36:57;;;;;;;61.37;22.43;;;;;;;4.96;100.00;99881.34;4167151;28;21947;-72
2022/11/15 09:39:24;;;;;;;62.40;23.23;;;;;;;4.98;100.00;99878.59;4158527;28;20239;-76
2022/11/15 09:41:57;;;;;;;58.23;23.73;;;;;;;5.11;100.00;99881.13;4137561;28;20305;-73
2022/11/15 09:44:56;;;;;;;53.30;22.57;;;;;;;5.14;100.00;99878.22;4172650;28;22676;-71
2022/11/15 09:47:49;;;;;;;56.87;22.90;;;;;;;5.11;100.00;99867.94;4183663;28;20232;-73
2022/11/15 09:50:26;;;;;;;59.07;23.77;;;;;;;5.07;100.00;99870.78;4158968;28;20352;-71
2022/11/15 09:52:55;;;;;;;62.20;24.00;;;;;;;5.01;100.00;99866.03;4160429;28;22662;-72
2022/11/15 09:55:41;;;;;;;57.90;23.97;;;;;;;4.91;100.00;99865.06;4168923;28;20306;-77
2022/11/15 09:58:36;;;;;;;63.93;23.93;;;;;;;5.05;100.00;99856.88;4151714;28;20237;-73
2022/11/15 10:01:08;;;;;;;60.37;24.30;;;;;;;5.09;100.00;99844.31;4197196;28;20654;-75
2022/11/15 10:03:37;;;;;;;59.07;24.60;;;;;;;5.00;100.00;99851.16;4153851;28;20234;-70
2022/11/15 10:06:05;;;;;;;55.43;23.93;;;;;;;5.04;100.00;99847.31;4168757;28;20249;-74
2022/11/15 10:08:55;;;;;;;56.63;23.70;;;;;;;5.07;100.00;99847.06;4169608;28;20319;-77
2022/11/15 10:11:26;;;;;;;59.00;24.80;;;;;;;5.09;100.00;99833.75;4170697;28;20246;-71
2022/11/15 10:14:14;;;;;;;53.77;23.70;;;;;;;5.17;100.00;99830.50;4175993;28;21729;-74
2022/11/15 10:17:20;;;;;;;57.03;24.40;;;;;;;5.26;100.00;99829.75;4166384;28;20245;-72
2022/11/15 10:20:03;;;;;;;63.23;24.20;;;;;;;5.24;100.00;99829.88;4155000;28;20230;-73
2022/11/15 10:22:45;;;;;;;68.43;26.00;;;;;;;5.19;100.00;99833.84;4158121;28;20407;-72
2022/11/15 10:25:24;;;;;;;73.37;26.90;;;;;;;5.12;100.00;99832.66;4156714;28;20531;-74
2022/11/15 10:27:59;;;;;;;70.33;26.10;;;;;;;4.97;100.00;99830.31;4158138;28;20236;-73
2022/11/15 10:30:40;;;;;;;74.00;28.10;;;;;;;5.16;100.00;99836.75;4148661;28;20226;-74
2022/11/15 10:33:25;;;;;;;72.23;26.30;;;;;;;5.38;100.00;99833.16;4168089;28;21688;-73
2022/11/15 10:36:09;;;;;;;77.07;26.90;;;;;;;5.47;100.00;99827.97;4165050;28;20312;-75
2022/11/15 10:38:56;;;;;;;67.83;27.20;;;;;;;5.56;100.00;99822.91;4170286;28;20432;-71
2022/11/15 10:41:26;;;;;;;63.77;26.30;;;;;;;5.50;100.00;99816.31;4174907;28;20268;-73
2022/11/15 10:44:16;;;;;;;66.87;26.77;;;;;;;5.12;100.00;99814.22;4153796;28;20486;-72
2022/11/15 10:46:46;;;;;;;71.80;26.97;;;;;;;5.27;100.00;99813.78;4155823;28;20365;-72
2022/11/15 10:49:16;;;;;;;68.30;27.23;;;;;;;5.31;100.00;99817.00;4180909;28;20517;-75
2022/11/15 10:51:49;;;;;;;67.87;28.90;;;;;;;5.42;100.00;99811.69;4154277;28;22394;-73
2022/11/15 10:54:33;;;;;;;61.77;26.33;;;;;;;5.38;100.00;99812.88;4164634;28;23016;-73
2022/11/15 10:57:04;;;;;;;64.50;26.63;;;;;;;5.57;100.00;99811.38;4181375;28;20222;-71
2022/11/15 10:59:33;;;;;;;71.37;28.63;;;;;;;5.65;100.00;99808.94;4147345;28;20242;-73
2022/11/15 11:02:33;;;;;;;71.10;27.27;;;;;;;5.66;100.00;99803.50;4157429;28;20294;-73
2022/11/15 11:05:00;;;;;;;67.30;27.60;;;;;;;5.66;100.00;99802.69;4190306;28;23742;-75
2022/11/15 11:07:32;;;;;;;69.03;27.07;;;;;;;5.69;100.00;99807.72;4154466;28;20305;-75
2022/11/15 11:10:19;;;;;;;63.50;26.33;;;;;;;5.61;100.00;99810.97;4164861;28;22984;-72
2022/11/15 11:13:23;;;;;;;57.93;25.80;;;;;;;5.77;100.00;99804.41;4173652;28;20246;-71
2022/11/15 11:15:59;;;;;;;65.13;28.17;;;;;;;5.75;100.00;99807.19;4151306;28;20663;-77
2022/11/15 11:18:36;;;;;;;60.80;26.37;;;;;;;5.69;100.00;99807.72;4148093;28;23726;-75
2022/11/15 11:21:09;;;;;;;67.10;27.30;;;;;;;5.73;100.00;99801.19;4150123;28;23922;-77
2022/11/15 11:23:51;;;;;;;70.93;28.13;;;;;;;5.72;100.00;99799.53;4167228;28;20314;-72
2022/11/15 11:26:32;;;;;;;71.23;28.03;;;;;;;5.76;100.00;99789.53;4155261;28;20238;-73
2022/11/15 11:29:02;;;;;;;65.97;28.57;;;;;;;5.62;100.00;99788.06;4155010;28;20234;-78
2022/11/15 11:31:51;;;;;;;64.83;26.77;;;;;;;5.65;100.00;99779.91;4158575;28;20242;-73
2022/11/15 11:34:44;;;;;;;74.30;28.20;;;;;;;5.85;100.00;99783.47;4162402;28;20278;-74
2022/11/15 11:37:24;;;;;;;72.17;28.50;;;;;;;6.04;100.00;99769.56;4176577;28;20749;-79
2022/11/15 11:40:16;;;;;;;75.50;28.93;;;;;;;6.11;100.00;99773.34;4166962;28;21092;-77
2022/11/15 11:43:01;;;;;;;69.33;28.07;;;;;;;5.92;100.00;99766.13;4187035;28;20294;-75
2022/11/15 11:45:33;;;;;;;62.80;27.57;;;;;;;5.99;100.00;99769.13;4175074;28;20227;-74